createdAt,value
2018-11-04T00:02:08.694Z,22.67
2018-11-04T00:04:37.937Z,23.23
2018-11-04T00:07:07.204Z,21.67
2018-11-04T00:09:36.404Z,22.70
2018-11-04T00:12:05.895Z,28.30
2018-11-04T00:14:35.311Z,20.23
2018-11-04T00:17:04.556Z,23.10
2018-11-04T00:19:33.788Z,21.00
2018-11-04T00:22:02.973Z,20.50
2018-11-04T00:24:32.146Z,21.10
2018-11-04T00:27:01.393Z,23.83
2018-11-04T00:29:30.532Z,19.92
2018-11-04T00:31:59.729Z,27.73
2018-11-04T00:34:28.938Z,19.85
2018-11-04T00:36:58.095Z,25.60
2018-11-04T00:39:27.323Z,35.47
2018-11-04T00:41:56.520Z,28.67
2018-11-04T00:44:25.776Z,23.10
2018-11-04T00:46:54.983Z,23.83
2018-11-04T00:49:24.209Z,23.73
2018-11-04T00:51:53.457Z,22.87
2018-11-04T00:54:22.715Z,20.30
2018-11-04T00:56:51.907Z,21.57
2018-11-04T00:59:21.107Z,22.27
2018-11-04T01:01:50.383Z,25.80
2018-11-04T01:04:19.651Z,24.77
2018-11-04T01:06:48.812Z,21.35
2018-11-04T01:09:18.038Z,27.97
2018-11-04T01:11:47.201Z,21.50
2018-11-04T01:14:17.002Z,22.97
2018-11-04T01:16:46.207Z,23.03
2018-11-04T01:19:15.791Z,23.93
2018-11-04T01:21:45.012Z,26.05
2018-11-04T01:24:14.924Z,27.47
2018-11-04T01:26:44.252Z,24.90
2018-11-04T01:29:14.045Z,20.57
2018-11-04T01:31:43.212Z,24.30
2018-11-04T01:34:12.774Z,23.47
2018-11-04T01:36:41.964Z,19.90
2018-11-04T01:39:11.473Z,24.87
2018-11-04T01:41:40.782Z,23.80
2018-11-04T01:44:11.743Z,26.40
2018-11-04T01:46:42.113Z,22.37
2018-11-04T01:49:11.474Z,21.60
2018-11-04T01:51:40.722Z,24.77
2018-11-04T01:54:09.944Z,21.97
2018-11-04T01:56:39.138Z,22.53
2018-11-04T01:59:08.326Z,22.80
2018-11-04T02:01:37.574Z,21.90
2018-11-04T02:04:06.930Z,24.20
2018-11-04T02:06:36.332Z,23.90
2018-11-04T02:09:08.191Z,31.80
2018-11-04T02:11:37.433Z,21.40
2018-11-04T02:14:06.877Z,25.40
2018-11-04T02:16:36.668Z,23.17
2018-11-04T02:19:06.260Z,23.57
2018-11-04T02:21:35.516Z,30.17
2018-11-04T02:24:04.860Z,22.63
2018-11-04T02:26:34.104Z,24.80
2018-11-04T02:29:03.289Z,23.20
2018-11-04T02:31:32.490Z,25.70
2018-11-04T02:34:01.651Z,24.70
2018-11-04T02:36:30.858Z,23.13
2018-11-04T02:39:00.044Z,26.87
2018-11-04T02:41:29.231Z,26.00
2018-11-04T02:43:58.433Z,20.13
2018-11-04T02:46:27.625Z,25.88
2018-11-04T02:48:57.649Z,25.50
2018-11-04T02:51:26.823Z,27.23
2018-11-04T02:53:56.051Z,25.47
2018-11-04T02:56:25.236Z,24.70
2018-11-04T02:58:54.643Z,28.27
2018-11-04T03:01:23.889Z,21.73
2018-11-04T03:03:53.089Z,24.57
2018-11-04T03:06:22.255Z,27.27
2018-11-04T03:08:51.433Z,27.00
2018-11-04T03:11:20.671Z,24.23
2018-11-04T03:13:49.893Z,23.90
2018-11-04T03:16:19.676Z,27.13
2018-11-04T03:18:48.932Z,25.10
2018-11-04T03:21:18.177Z,24.33
2018-11-04T03:23:47.373Z,26.37
2018-11-04T03:26:17.672Z,31.60
2018-11-04T03:28:46.943Z,23.93
2018-11-04T03:31:16.130Z,25.97
2018-11-04T03:33:45.295Z,27.80
2018-11-04T03:36:14.983Z,27.58
2018-11-04T03:38:44.193Z,24.37
2018-11-04T03:41:13.964Z,24.97
2018-11-04T03:43:43.132Z,27.07
2018-11-04T03:46:12.769Z,25.60
2018-11-04T03:48:42.110Z,25.93
2018-11-04T03:51:11.492Z,32.03
2018-11-04T03:53:40.675Z,28.00
2018-11-04T03:56:09.881Z,25.27
2018-11-04T03:58:39.050Z,29.60
2018-11-04T04:01:08.256Z,25.35
2018-11-04T04:03:37.501Z,25.80
2018-11-04T04:06:06.778Z,25.73
2018-11-04T04:08:36.067Z,25.83
2018-11-04T04:11:05.375Z,25.23
2018-11-04T04:13:34.527Z,26.77
2018-11-04T04:16:03.750Z,28.87
2018-11-04T04:18:32.938Z,29.30
2018-11-04T04:21:09.974Z,25.10
2018-11-04T04:23:40.368Z,30.13
2018-11-04T04:26:10.926Z,26.40
2018-11-04T04:28:40.460Z,24.90
2018-11-04T04:31:09.966Z,27.57
2018-11-04T04:33:39.372Z,28.77
2018-11-04T04:36:08.611Z,30.32
2018-11-04T04:38:37.806Z,28.77
2018-11-04T04:41:07.205Z,28.37
2018-11-04T04:43:36.374Z,25.43
2018-11-04T04:46:05.578Z,27.30
2018-11-04T04:48:34.780Z,22.83
2018-11-04T04:51:03.987Z,27.90
2018-11-04T04:53:33.186Z,26.73
2018-11-04T04:56:02.415Z,30.87
2018-11-04T04:58:31.622Z,27.90
2018-11-04T05:01:00.859Z,31.63
2018-11-04T05:03:30.190Z,28.97
2018-11-04T05:05:59.369Z,27.70
2018-11-04T05:08:28.545Z,30.83
2018-11-04T05:10:57.730Z,31.87
2018-11-04T05:13:26.990Z,27.40
2018-11-04T05:15:56.184Z,29.87
2018-11-04T05:18:25.395Z,36.60
2018-11-04T05:20:54.611Z,28.90
2018-11-04T05:23:23.857Z,31.50
2018-11-04T05:25:53.038Z,32.05
2018-11-04T05:28:22.218Z,30.33
2018-11-04T05:30:51.422Z,29.83
2018-11-04T05:33:20.672Z,29.13
2018-11-04T05:35:49.890Z,25.80
2018-11-04T05:38:19.112Z,33.33
2018-11-04T05:40:48.328Z,31.17
2018-11-04T05:43:17.870Z,30.08
2018-11-04T05:45:47.062Z,32.20
2018-11-04T05:48:16.497Z,33.73
2018-11-04T05:50:45.764Z,28.12
2018-11-04T05:53:15.459Z,26.87
2018-11-04T05:55:45.425Z,27.20
2018-11-04T05:58:15.236Z,26.90
2018-11-04T06:00:44.480Z,26.03
2018-11-04T06:03:13.723Z,33.60
2018-11-04T06:05:42.971Z,27.03
2018-11-04T06:08:12.631Z,29.80
2018-11-04T06:10:41.792Z,31.43
2018-11-04T06:13:11.539Z,24.40
2018-11-04T06:15:40.779Z,29.20
2018-11-04T06:18:10.451Z,27.50
2018-11-04T06:20:39.640Z,32.37
2018-11-04T06:23:09.174Z,24.05
2018-11-04T06:25:38.352Z,30.73
2018-11-04T06:28:07.861Z,27.97
2018-11-04T06:30:37.049Z,26.27
2018-11-04T06:33:06.305Z,28.90
2018-11-04T06:35:35.520Z,26.52
2018-11-04T06:38:04.705Z,25.53
2018-11-04T06:40:33.879Z,30.07
2018-11-04T06:43:03.058Z,29.50
2018-11-04T06:45:32.291Z,28.63
2018-11-04T06:48:01.507Z,27.30
2018-11-04T06:50:30.667Z,27.17
2018-11-04T06:53:01.391Z,33.53
2018-11-04T06:55:30.720Z,32.70
2018-11-04T06:57:59.927Z,30.97
2018-11-04T07:00:29.136Z,30.40
2018-11-04T07:02:58.371Z,31.60
2018-11-04T07:05:27.575Z,26.03
2018-11-04T07:07:56.830Z,29.27
2018-11-04T07:10:26.039Z,32.17
2018-11-04T07:12:55.636Z,30.97
2018-11-04T07:15:25.066Z,27.98
2018-11-04T07:17:54.950Z,34.23
2018-11-04T07:20:24.143Z,29.13
2018-11-04T07:22:53.478Z,31.93
2018-11-04T07:25:22.698Z,32.77
2018-11-04T07:27:51.910Z,33.40
2018-11-04T07:30:21.113Z,29.77
2018-11-04T07:32:50.396Z,28.70
2018-11-04T07:35:19.565Z,34.60
2018-11-04T07:37:48.728Z,32.73
2018-11-04T07:40:17.899Z,33.63
2018-11-04T07:42:47.081Z,33.45
2018-11-04T07:45:16.234Z,32.03
2018-11-04T07:47:45.420Z,32.80
2018-11-04T07:50:15.235Z,34.97
2018-11-04T07:52:44.975Z,32.67
2018-11-04T07:55:14.151Z,33.13
2018-11-04T07:57:43.696Z,34.73
2018-11-04T08:00:15.698Z,30.70
2018-11-04T08:02:45.499Z,33.77
2018-11-04T08:05:14.778Z,30.87
2018-11-04T08:07:43.956Z,31.10
2018-11-04T08:10:15.901Z,33.70
2018-11-04T08:12:45.142Z,34.03
2018-11-04T08:15:14.785Z,29.52
2018-11-04T08:17:43.991Z,35.33
2018-11-04T08:20:13.659Z,32.53
2018-11-04T08:22:42.860Z,32.53
2018-11-04T08:25:12.399Z,35.53
2018-11-04T08:27:41.602Z,34.70
2018-11-04T08:30:11.817Z,30.30
2018-11-04T08:32:41.056Z,34.70
2018-11-04T08:35:11.022Z,32.73
2018-11-04T08:37:40.211Z,30.73
2018-11-04T08:40:10.415Z,28.63
2018-11-04T08:42:39.498Z,29.13
2018-11-04T08:45:09.510Z,33.87
2018-11-04T08:47:38.684Z,33.90
2018-11-04T08:50:08.994Z,31.33
2018-11-04T08:52:38.261Z,35.67
2018-11-04T08:55:08.300Z,32.90
2018-11-04T08:57:37.471Z,32.83
2018-11-04T09:00:09.478Z,34.70
2018-11-04T09:02:38.707Z,33.33
2018-11-04T09:05:08.573Z,35.50
2018-11-04T09:07:37.889Z,33.58
2018-11-04T09:10:11.141Z,32.37
2018-11-04T09:12:41.549Z,33.88
2018-11-04T09:15:12.377Z,31.90
2018-11-04T09:17:41.615Z,35.77
2018-11-04T09:20:15.253Z,30.10
2018-11-04T09:22:44.648Z,34.30
2018-11-04T09:25:14.343Z,32.67
2018-11-04T09:27:43.515Z,32.17
2018-11-04T09:30:14.371Z,34.60
2018-11-04T09:32:43.585Z,32.53
2018-11-04T09:35:13.471Z,28.90
2018-11-04T09:37:42.612Z,30.60
2018-11-04T09:40:13.341Z,30.83
2018-11-04T09:42:42.544Z,35.77
2018-11-04T09:45:12.432Z,29.40
2018-11-04T09:47:41.625Z,34.00
2018-11-04T09:50:12.631Z,32.80
2018-11-04T09:52:41.863Z,33.70
2018-11-04T09:55:12.528Z,32.23
2018-11-04T09:57:41.719Z,39.07
2018-11-04T10:00:12.685Z,33.50
2018-11-04T10:02:41.929Z,34.30
2018-11-04T10:05:12.395Z,32.58
2018-11-04T10:07:41.595Z,33.63
2018-11-04T10:10:12.673Z,38.77
2018-11-04T10:12:43.237Z,32.00
2018-11-04T10:15:13.349Z,33.37
2018-11-04T10:17:42.644Z,30.47
2018-11-04T10:20:13.238Z,30.57
2018-11-04T10:22:42.548Z,33.10
2018-11-04T10:25:12.940Z,31.40
2018-11-04T10:27:42.620Z,30.83
2018-11-04T10:30:14.210Z,32.37
2018-11-04T10:32:43.629Z,32.37
2018-11-04T10:35:13.400Z,29.92
2018-11-04T10:37:42.998Z,28.30
2018-11-04T10:40:13.179Z,30.20
2018-11-04T10:42:42.396Z,32.70
2018-11-04T10:45:12.729Z,29.15
2018-11-04T10:47:42.030Z,30.50
2018-11-04T10:50:12.752Z,29.83
2018-11-04T10:52:41.990Z,28.10
2018-11-04T10:55:12.702Z,29.70
2018-11-04T10:57:42.095Z,34.58
2018-11-04T11:00:18.786Z,30.43
2018-11-04T11:02:49.306Z,32.83
2018-11-04T11:05:19.821Z,29.17
2018-11-04T11:07:49.947Z,35.50
2018-11-04T11:10:20.264Z,29.73
2018-11-04T11:12:50.445Z,29.07
2018-11-04T11:15:20.949Z,34.07
2018-11-04T11:17:51.212Z,29.97
2018-11-04T11:20:20.427Z,31.83
2018-11-04T11:22:49.657Z,30.73
2018-11-04T11:25:18.875Z,31.00
2018-11-04T11:27:48.221Z,33.85
2018-11-04T11:30:17.477Z,27.50
2018-11-04T11:32:46.659Z,30.60
2018-11-04T11:35:15.943Z,25.90
2018-11-04T11:37:45.195Z,36.03
2018-11-04T11:40:15.368Z,28.13
2018-11-04T11:42:44.563Z,34.60
2018-11-04T11:45:14.170Z,27.13
2018-11-04T11:47:43.408Z,27.03
2018-11-04T11:50:13.618Z,29.40
2018-11-04T11:52:42.931Z,29.07
2018-11-04T11:55:12.350Z,29.40
2018-11-04T11:57:41.592Z,29.37
2018-11-04T12:00:12.620Z,26.97
2018-11-04T12:02:41.844Z,22.93
2018-11-04T12:05:12.000Z,22.00
2018-11-04T12:07:41.223Z,28.97
2018-11-04T12:10:13.172Z,27.10
2018-11-04T12:12:42.433Z,27.37
2018-11-04T12:15:13.783Z,24.20
2018-11-04T12:17:43.165Z,28.30
2018-11-04T12:20:13.307Z,23.27
2018-11-04T12:22:42.605Z,22.50
2018-11-04T12:25:13.830Z,23.73
2018-11-04T12:27:43.224Z,18.23
2018-11-04T12:30:14.206Z,20.83
2018-11-04T12:32:43.746Z,23.20
2018-11-04T12:35:13.849Z,19.70
2018-11-04T12:37:43.291Z,18.90
2018-11-04T12:40:13.653Z,25.93
2018-11-04T12:42:43.969Z,20.37
2018-11-04T12:45:14.022Z,22.20
2018-11-04T12:47:43.571Z,18.80
2018-11-04T12:50:13.464Z,23.27
2018-11-04T12:52:42.672Z,20.07
2018-11-04T12:55:13.759Z,18.42
2018-11-04T12:57:42.961Z,20.43
2018-11-04T13:00:14.942Z,17.97
2018-11-04T13:02:44.994Z,20.93
2018-11-04T13:05:14.378Z,20.17
2018-11-04T13:07:43.564Z,17.70
2018-11-04T13:10:14.133Z,20.90
2018-11-04T13:12:43.288Z,18.97
2018-11-04T13:15:13.801Z,24.77
2018-11-04T13:17:43.323Z,20.07
2018-11-04T13:20:13.142Z,16.57
2018-11-04T13:22:42.363Z,17.63
2018-11-04T13:25:12.072Z,17.73
2018-11-04T13:27:41.305Z,18.03
2018-11-04T13:30:12.948Z,18.70
2018-11-04T13:32:42.164Z,15.67
2018-11-04T13:35:13.001Z,16.87
2018-11-04T13:37:42.187Z,15.00
2018-11-04T13:40:13.286Z,20.33
2018-11-04T13:42:42.723Z,18.67
2018-11-04T13:45:12.711Z,21.47
2018-11-04T13:47:41.884Z,15.07
2018-11-04T13:50:13.583Z,15.90
2018-11-04T13:52:43.386Z,15.37
2018-11-04T13:55:13.310Z,15.63
2018-11-04T13:57:42.520Z,13.30
2018-11-04T14:00:15.512Z,14.80
2018-11-04T14:02:46.419Z,18.00
2018-11-04T14:05:15.633Z,16.12
2018-11-04T14:07:44.932Z,15.33
2018-11-04T14:10:15.299Z,15.27
2018-11-04T14:12:45.248Z,18.73
2018-11-04T14:15:14.793Z,18.80
2018-11-04T14:17:44.752Z,15.48
2018-11-04T14:20:14.059Z,17.40
2018-11-04T14:22:43.282Z,14.37
2018-11-04T14:25:13.673Z,14.05
2018-11-04T14:27:42.905Z,12.93
2018-11-04T14:30:15.147Z,11.50
2018-11-04T14:32:44.811Z,12.33
2018-11-04T14:35:14.040Z,12.27
2018-11-04T14:37:43.624Z,9.60
2018-11-04T14:40:15.143Z,10.28
2018-11-04T14:42:45.183Z,9.00
2018-11-04T14:45:14.455Z,9.23
2018-11-04T14:47:43.707Z,11.73
2018-11-04T14:50:14.449Z,10.18
2018-11-04T14:52:43.692Z,11.03
2018-11-04T14:55:13.507Z,10.87
2018-11-04T14:57:42.723Z,11.20
2018-11-04T15:00:14.744Z,10.50
2018-11-04T15:02:43.996Z,10.27
2018-11-04T15:05:13.616Z,10.67
2018-11-04T15:07:42.812Z,10.80
2018-11-04T15:10:14.747Z,10.13
2018-11-04T15:12:44.188Z,11.00
2018-11-04T15:15:15.441Z,8.83
2018-11-04T15:17:44.698Z,12.60
2018-11-04T15:20:14.458Z,12.10
2018-11-04T15:22:47.423Z,10.93
2018-11-04T15:25:17.701Z,11.33
2018-11-04T15:27:47.059Z,11.63
2018-11-04T15:30:16.242Z,11.37
2018-11-04T15:32:45.641Z,11.47
2018-11-04T15:35:15.721Z,13.80
2018-11-04T15:37:45.200Z,9.70
2018-11-04T15:40:15.444Z,8.90
2018-11-04T15:42:44.659Z,9.60
2018-11-04T15:45:15.022Z,8.90
2018-11-04T15:47:44.207Z,9.93
2018-11-04T15:50:15.015Z,10.90
2018-11-04T15:52:44.229Z,9.17
2018-11-04T15:55:13.542Z,9.67
2018-11-04T15:57:42.769Z,11.18
2018-11-04T16:00:14.371Z,10.20
2018-11-04T16:02:43.685Z,7.93
2018-11-04T16:05:13.413Z,8.33
2018-11-04T16:07:42.659Z,8.77
2018-11-04T16:10:13.995Z,8.67
2018-11-04T16:12:43.208Z,10.50
2018-11-04T16:15:14.426Z,10.77
2018-11-04T16:17:44.277Z,11.07
2018-11-04T16:20:15.289Z,9.40
2018-11-04T16:22:45.092Z,8.27
2018-11-04T16:25:15.263Z,8.60
2018-11-04T16:27:44.467Z,8.10
2018-11-04T16:30:15.665Z,9.00
2018-11-04T16:32:44.917Z,8.17
2018-11-04T16:35:15.068Z,9.40
2018-11-04T16:37:45.025Z,9.60
2018-11-04T16:40:14.667Z,10.00
2018-11-04T16:42:43.875Z,10.10
2018-11-04T16:45:14.740Z,11.80
2018-11-04T16:47:43.940Z,9.93
2018-11-04T16:50:14.449Z,10.50
2018-11-04T16:52:44.346Z,17.37
2018-11-04T16:55:13.890Z,9.17
2018-11-04T16:57:43.535Z,9.63
2018-11-04T17:00:13.221Z,10.93
2018-11-04T17:02:42.476Z,11.13
2018-11-04T17:05:12.456Z,13.53
2018-11-04T17:07:41.891Z,11.73
2018-11-04T17:10:14.200Z,11.60
2018-11-04T17:12:43.361Z,13.00
2018-11-04T17:15:14.918Z,9.95
2018-11-04T17:17:44.380Z,10.53
2018-11-04T17:20:18.424Z,17.77
2018-11-04T17:22:47.724Z,13.07
2018-11-04T17:25:20.279Z,12.37
2018-11-04T17:27:50.128Z,13.88
2018-11-04T17:30:19.645Z,12.73
2018-11-04T17:32:49.058Z,11.57
2018-11-04T17:35:18.875Z,11.20
2018-11-04T17:37:48.622Z,14.13
2018-11-04T17:40:18.694Z,12.70
2018-11-04T17:42:47.867Z,11.00
2018-11-04T17:45:18.405Z,12.00
2018-11-04T17:47:47.958Z,12.60
2018-11-04T17:50:18.835Z,11.87
2018-11-04T17:52:48.105Z,10.50
2018-11-04T17:55:18.624Z,12.80
2018-11-04T17:57:47.810Z,12.77
2018-11-04T18:00:18.918Z,10.83
2018-11-04T18:02:48.124Z,11.67
2018-11-04T18:05:18.653Z,10.83
2018-11-04T18:07:47.836Z,11.38
2018-11-04T18:10:18.057Z,10.20
2018-11-04T18:12:47.275Z,15.43
2018-11-04T18:15:17.594Z,9.90
2018-11-04T18:17:46.898Z,11.27
2018-11-04T18:20:17.908Z,11.87
2018-11-04T18:22:47.100Z,11.03
2018-11-04T18:25:17.225Z,13.73
2018-11-04T18:27:46.399Z,15.50
2018-11-04T18:30:17.243Z,13.57
2018-11-04T18:32:46.945Z,12.40
2018-11-04T18:35:16.998Z,12.60
2018-11-04T18:37:46.175Z,11.40
2018-11-04T18:40:18.431Z,9.97
2018-11-04T18:42:47.659Z,15.70
2018-11-04T18:45:18.059Z,11.30
2018-11-04T18:47:47.258Z,13.83
2018-11-04T18:50:19.274Z,13.03
2018-11-04T18:52:48.536Z,12.73
2018-11-04T18:55:19.371Z,15.40
2018-11-04T18:57:48.579Z,14.00
2018-11-04T19:00:44.591Z,13.53
2018-11-04T19:03:14.368Z,13.10
2018-11-04T19:05:43.607Z,13.40
2018-11-04T19:08:12.824Z,15.60
2018-11-04T19:10:42.176Z,15.30
2018-11-04T19:13:11.503Z,15.60
2018-11-04T19:15:41.948Z,14.60
2018-11-04T19:18:11.231Z,16.27
2018-11-04T19:20:40.504Z,21.33
2018-11-04T19:23:10.851Z,17.07
2018-11-04T19:25:40.135Z,15.33
2018-11-04T19:28:09.336Z,15.43
2018-11-04T19:30:38.594Z,17.37
2018-11-04T19:33:07.755Z,18.13
2018-11-04T19:35:37.043Z,17.07
2018-11-04T19:38:06.398Z,17.97
2018-11-04T19:40:35.593Z,15.20
2018-11-04T19:43:04.982Z,18.53
2018-11-04T19:45:34.228Z,15.50
2018-11-04T19:48:03.448Z,18.33
2018-11-04T19:50:32.615Z,16.93
2018-11-04T19:53:02.299Z,14.77
2018-11-04T19:55:31.502Z,18.00
2018-11-04T19:58:00.681Z,14.40
2018-11-04T20:00:29.946Z,14.18
2018-11-04T20:02:59.155Z,17.17
2018-11-04T20:05:28.388Z,15.23
2018-11-04T20:07:57.547Z,17.83
2018-11-04T20:10:26.818Z,15.80
2018-11-04T20:13:01.119Z,14.47
2018-11-04T20:15:30.320Z,15.37
2018-11-04T20:17:59.535Z,13.83
2018-11-04T20:20:28.754Z,13.37
2018-11-04T20:22:57.991Z,15.53
2018-11-04T20:25:32.478Z,17.65
2018-11-04T20:28:01.613Z,12.50
2018-11-04T20:30:30.970Z,14.70
2018-11-04T20:33:04.272Z,14.90
2018-11-04T20:35:33.563Z,13.80
2018-11-04T20:38:02.749Z,12.60
2018-11-04T20:40:37.141Z,14.83
2018-11-04T20:43:06.440Z,15.05
2018-11-04T20:45:35.674Z,16.83
2018-11-04T20:48:10.525Z,14.13
2018-11-04T20:50:44.800Z,14.43
2018-11-04T20:53:14.522Z,14.07
2018-11-04T20:55:48.976Z,15.67
2018-11-04T20:58:18.322Z,15.33
2018-11-04T21:00:47.427Z,14.60
2018-11-04T21:03:17.243Z,17.67
2018-11-04T21:05:46.415Z,15.33
2018-11-04T21:08:16.056Z,20.30
2018-11-04T21:10:45.198Z,14.60
2018-11-04T21:13:14.961Z,13.53
2018-11-04T21:15:44.300Z,16.27
2018-11-04T21:18:14.019Z,12.57
2018-11-04T21:20:43.227Z,15.73
2018-11-04T21:23:12.393Z,12.53
2018-11-04T21:25:41.927Z,12.60
2018-11-04T21:28:10.851Z,13.08
2018-11-04T21:30:39.956Z,13.35
2018-11-04T21:33:09.138Z,13.63
2018-11-04T21:35:38.353Z,16.07
2018-11-04T21:38:07.610Z,15.53
2018-11-04T21:40:36.865Z,13.87
2018-11-04T21:43:06.284Z,10.80
2018-11-04T21:45:35.373Z,12.90
2018-11-04T21:48:04.698Z,13.43
2018-11-04T21:50:33.879Z,15.00
2018-11-04T21:53:03.128Z,16.00
2018-11-04T21:55:32.458Z,13.17
2018-11-04T21:58:01.656Z,13.27
2018-11-04T22:00:31.167Z,13.00
2018-11-04T22:03:00.472Z,15.60
2018-11-04T22:05:29.661Z,14.20
2018-11-04T22:07:58.843Z,12.37
2018-11-04T22:10:28.106Z,12.53
2018-11-04T22:28:02.030Z,13.33
2018-11-04T22:30:31.253Z,12.40
2018-11-04T22:33:00.414Z,12.60
2018-11-04T22:35:29.629Z,16.40
2018-11-04T22:37:58.797Z,17.83
2018-11-04T22:40:28.022Z,12.37
2018-11-04T22:42:57.199Z,13.60
2018-11-04T22:45:26.432Z,11.00
2018-11-04T22:47:55.641Z,12.40
2018-11-04T22:50:24.819Z,15.23
2018-11-04T22:52:54.023Z,11.37
2018-11-04T22:55:23.182Z,13.60
2018-11-04T22:57:52.443Z,13.67
2018-11-04T23:00:26.892Z,12.93
2018-11-04T23:02:56.239Z,13.50
2018-11-04T23:05:27.907Z,13.13
2018-11-04T23:07:57.103Z,13.77
2018-11-04T23:10:26.283Z,12.78
2018-11-04T23:12:55.482Z,11.67
2018-11-04T23:15:24.679Z,13.20
2018-11-04T23:17:53.907Z,16.27
2018-11-04T23:20:23.096Z,15.10
2018-11-04T23:22:52.295Z,13.30
2018-11-04T23:25:21.794Z,14.30
2018-11-04T23:27:50.996Z,15.65
2018-11-04T23:30:20.482Z,13.03
2018-11-04T23:32:49.676Z,15.50
2018-11-04T23:35:19.728Z,15.90
2018-11-04T23:37:50.164Z,15.10
2018-11-04T23:40:22.343Z,16.90
2018-11-04T23:42:51.569Z,15.73
2018-11-04T23:45:20.763Z,14.93
2018-11-04T23:47:49.960Z,14.07
2018-11-04T23:50:19.487Z,19.37
2018-11-04T23:52:48.693Z,14.30
2018-11-04T23:55:18.469Z,15.30
2018-11-04T23:57:47.647Z,14.20
